createdAt,value
2019-03-28T00:00:19.454Z,69.77
2019-03-28T00:01:19.453Z,70.5
2019-03-28T00:02:19.405Z,69.92
2019-03-28T00:03:19.425Z,69.53
2019-03-28T00:04:19.445Z,69.98
2019-03-28T00:05:19.479Z,70.62
2019-03-28T00:06:19.403Z,70
2019-03-28T00:07:19.455Z,69.67
2019-03-28T00:08:19.449Z,69.8
2019-03-28T00:09:19.807Z,70.04
2019-03-28T00:10:20.724Z,69.91
2019-03-28T00:11:19.435Z,69.5
2019-03-28T00:12:19.395Z,70.1
2019-03-28T00:13:19.426Z,69.8
2019-03-28T00:14:20.393Z,70.8
2019-03-28T00:15:19.498Z,71.4
2019-03-28T00:16:19.409Z,70.99
2019-03-28T00:17:19.424Z,70.93
2019-03-28T00:18:19.412Z,70.72
2019-03-28T00:19:19.460Z,70.88
2019-03-28T00:20:19.383Z,70.51
2019-03-28T00:21:19.378Z,70.92
2019-03-28T00:22:19.396Z,70.44
2019-03-28T00:23:19.373Z,70.49
2019-03-28T00:24:19.412Z,70.06
2019-03-28T00:25:19.412Z,70.55
2019-03-28T00:26:29.285Z,70.41
2019-03-28T00:27:19.378Z,70.63
2019-03-28T00:28:19.423Z,71.27
2019-03-28T00:29:19.403Z,71.27
2019-03-28T00:30:19.437Z,71.03
2019-03-28T00:31:19.375Z,70.86
2019-03-28T00:32:19.373Z,70.39
2019-03-28T00:33:19.388Z,70.06
2019-03-28T00:34:19.404Z,70.86
2019-03-28T00:35:19.404Z,71.6
2019-03-28T00:36:19.387Z,70.98
2019-03-28T00:37:19.366Z,70.7
2019-03-28T00:38:19.362Z,70.81
2019-03-28T00:39:19.377Z,70.82
2019-03-28T00:40:19.379Z,70.9
2019-03-28T00:41:20.148Z,70.25
2019-03-28T00:42:19.363Z,70.29
2019-03-28T00:43:19.358Z,71.07
2019-03-28T00:44:19.348Z,70.85
2019-03-28T00:45:19.357Z,70.97
2019-03-28T00:46:19.361Z,70.51
2019-03-28T00:47:19.381Z,70.23
2019-03-28T00:48:19.352Z,69.98
2019-03-28T00:49:19.384Z,70.47
2019-03-28T00:50:19.352Z,70.39
2019-03-28T00:51:19.358Z,70.89
2019-03-28T00:52:19.349Z,70.44
2019-03-28T00:53:19.334Z,70.15
2019-03-28T00:54:19.354Z,70.34
2019-03-28T00:55:19.342Z,70.38
2019-03-28T00:56:19.337Z,69.88
2019-03-28T00:57:19.636Z,69.77
2019-03-28T00:58:19.363Z,70.89
2019-03-28T00:59:19.426Z,70.52
2019-03-28T01:00:20.620Z,70.17
2019-03-28T01:01:19.366Z,70.37
2019-03-28T01:02:19.323Z,70.04
2019-03-28T01:03:19.330Z,69.7
2019-03-28T01:04:19.316Z,70.48
2019-03-28T01:05:19.359Z,71.01
2019-03-28T01:06:19.305Z,70.73
2019-03-28T01:07:19.347Z,70.41
2019-03-28T01:08:19.300Z,70.83
2019-03-28T01:09:19.340Z,70.6
2019-03-28T01:10:19.307Z,70.19
2019-03-28T01:11:19.313Z,70.81
2019-03-28T01:12:19.345Z,70.41
2019-03-28T01:13:19.350Z,70.38
2019-03-28T01:14:19.319Z,70.29
2019-03-28T01:15:19.350Z,70.79
2019-03-28T01:16:19.303Z,71.83
2019-03-28T01:17:19.305Z,71.92
2019-03-28T01:18:20.159Z,72.05
2019-03-28T01:19:19.306Z,72.12
2019-03-28T01:20:19.309Z,72.07
2019-03-28T01:21:19.305Z,71.99
2019-03-28T01:22:19.282Z,71.67
2019-03-28T01:23:19.283Z,72.2
2019-03-28T01:24:19.289Z,71.67
2019-03-28T01:25:19.301Z,71.25
2019-03-28T01:26:19.316Z,70.82
2019-03-28T01:27:19.293Z,72.13
2019-03-28T01:28:19.297Z,71.87
2019-03-28T01:29:19.331Z,71.64
2019-03-28T01:30:19.318Z,71.44
2019-03-28T01:31:19.322Z,71.67
2019-03-28T01:32:19.297Z,71.93
2019-03-28T01:33:19.303Z,72.14
2019-03-28T01:34:19.334Z,72.21
2019-03-28T01:35:19.324Z,72.22
2019-03-28T01:36:19.293Z,72.19
2019-03-28T01:37:19.378Z,72.03
2019-03-28T01:38:20.202Z,72.21
2019-03-28T01:39:21.139Z,72.21
2019-03-28T01:40:19.478Z,72.25
2019-03-28T01:41:19.270Z,72.17
2019-03-28T01:42:19.349Z,72.09
2019-03-28T01:43:20.274Z,71.54
2019-03-28T01:44:19.271Z,71.79
2019-03-28T01:45:19.299Z,71.41
2019-03-28T01:46:19.250Z,71.63
2019-03-28T01:47:19.290Z,71.92
2019-03-28T01:48:19.261Z,72.04
2019-03-28T01:49:19.253Z,71.94
2019-03-28T01:50:19.253Z,71.74
2019-03-28T01:51:19.247Z,72.02
2019-03-28T01:52:19.256Z,72.01
2019-03-28T01:53:19.264Z,71.69
2019-03-28T01:54:19.282Z,71.43
2019-03-28T01:55:19.239Z,72.04
2019-03-28T01:56:19.254Z,72.02
2019-03-28T01:57:19.277Z,72.05
2019-03-28T01:58:19.249Z,72.21
2019-03-28T01:59:19.232Z,72.1
2019-03-28T02:00:19.245Z,72.27
2019-03-28T02:01:19.553Z,72.43
2019-03-28T02:02:19.261Z,72.86
2019-03-28T02:03:19.291Z,73.07
2019-03-28T02:04:19.245Z,72.74
2019-03-28T02:05:19.250Z,72.74
2019-03-28T02:06:19.241Z,72.57
2019-03-28T02:07:19.226Z,72.13
2019-03-28T02:08:19.217Z,71.96
2019-03-28T02:09:19.207Z,71.81
2019-03-28T02:10:19.214Z,71.8
2019-03-28T02:11:19.212Z,71.7
2019-03-28T02:12:19.238Z,71.63
2019-03-28T02:13:19.216Z,72.24
2019-03-28T02:14:19.214Z,72.69
2019-03-28T02:15:19.235Z,73.2
2019-03-28T02:16:19.245Z,73.32
2019-03-28T02:17:19.204Z,73.19
2019-03-28T02:18:19.210Z,72.92
2019-03-28T02:19:19.373Z,73.3
2019-03-28T02:20:19.234Z,73.08
2019-03-28T02:21:19.274Z,73.1
2019-03-28T02:22:19.532Z,72.84
2019-03-28T02:23:19.391Z,72.53
2019-03-28T02:24:19.193Z,72.61
2019-03-28T02:25:19.242Z,72.17
2019-03-28T02:26:20.410Z,72.73
2019-03-28T02:27:24.124Z,72.7
2019-03-28T02:28:19.233Z,72.5
2019-03-28T02:29:19.238Z,72.14
2019-03-28T02:30:19.189Z,71.96
2019-03-28T02:31:19.215Z,72.03
2019-03-28T02:32:19.186Z,72.22
2019-03-28T02:33:19.268Z,72.84
2019-03-28T02:34:19.207Z,73.93
2019-03-28T02:35:19.314Z,73.57
2019-03-28T02:36:19.192Z,73.24
2019-03-28T02:37:19.187Z,73.31
2019-03-28T02:38:19.229Z,73.49
2019-03-28T02:39:19.169Z,74.01
2019-03-28T02:40:19.225Z,73.75
2019-03-28T02:41:19.163Z,73.52
2019-03-28T02:42:19.199Z,73.54
2019-03-28T02:43:19.879Z,72.85
2019-03-28T02:44:19.204Z,73.38
2019-03-28T02:45:19.179Z,73.53
2019-03-28T02:46:19.176Z,73.88
2019-03-28T02:47:20.449Z,73.51
2019-03-28T02:48:19.186Z,73.91
2019-03-28T02:49:19.874Z,73.62
2019-03-28T02:50:19.171Z,73.63
2019-03-28T02:51:19.191Z,73.57
2019-03-28T02:52:19.151Z,73.2
2019-03-28T02:53:19.167Z,73.08
2019-03-28T02:54:19.149Z,72.81
2019-03-28T02:55:19.154Z,73.17
2019-03-28T02:56:20.258Z,73.88
2019-03-28T02:57:20.110Z,73.53
2019-03-28T02:58:19.166Z,73.72
2019-03-28T02:59:19.172Z,73.83
2019-03-28T03:00:19.136Z,73.52
2019-03-28T03:01:19.139Z,73.32
2019-03-28T03:02:19.131Z,73.82
2019-03-28T03:03:19.196Z,73.78
2019-03-28T03:04:19.188Z,73.95
2019-03-28T03:05:19.158Z,74.32
2019-03-28T03:06:19.198Z,74.24
2019-03-28T03:07:19.179Z,73.9
2019-03-28T03:08:19.158Z,74.27
2019-03-28T03:09:19.167Z,74.16
2019-03-28T03:10:19.143Z,74.19
2019-03-28T03:11:19.144Z,73.69
2019-03-28T03:12:19.206Z,73.8
2019-03-28T03:13:19.796Z,73.43
2019-03-28T03:14:19.117Z,73.84
2019-03-28T03:15:19.132Z,74.03
2019-03-28T03:16:19.143Z,73.94
2019-03-28T03:17:19.106Z,73.87
2019-03-28T03:18:21.338Z,73.86
2019-03-28T03:19:19.140Z,74.08
2019-03-28T03:20:19.132Z,74.03
2019-03-28T03:21:19.112Z,73.97
2019-03-28T03:22:19.175Z,74.06
2019-03-28T03:23:19.896Z,74.03
2019-03-28T03:24:19.157Z,73.39
2019-03-28T03:25:19.133Z,73.28
2019-03-28T03:26:19.154Z,73.27
2019-03-28T03:27:19.401Z,73.09
2019-03-28T03:28:19.135Z,73.03
2019-03-28T03:29:19.095Z,73.59
2019-03-28T03:30:19.114Z,73.76
2019-03-28T03:31:21.099Z,73.49
2019-03-28T03:32:19.467Z,73.79
2019-03-28T03:33:19.140Z,73.96
2019-03-28T03:34:19.094Z,74.55
2019-03-28T03:35:19.128Z,74.67
2019-03-28T03:36:19.101Z,74.99
2019-03-28T03:37:19.143Z,75.09
2019-03-28T03:38:19.150Z,75.02
2019-03-28T03:39:19.078Z,75.43
2019-03-28T03:40:19.093Z,75.64
2019-03-28T03:41:19.094Z,75.49
2019-03-28T03:42:19.177Z,75.39
2019-03-28T03:43:19.080Z,76.4
2019-03-28T03:44:19.073Z,76.63
2019-03-28T03:45:19.072Z,76.01
2019-03-28T03:46:19.074Z,75.86
2019-03-28T03:47:19.689Z,75.72
2019-03-28T03:48:19.303Z,75.9
2019-03-28T03:49:19.340Z,75.82
2019-03-28T03:50:19.098Z,76.09
2019-03-28T03:51:19.148Z,75.94
2019-03-28T03:52:19.073Z,76.18
2019-03-28T03:53:19.133Z,76.57
2019-03-28T03:54:19.097Z,76.53
2019-03-28T03:55:19.094Z,76.14
2019-03-28T03:56:19.093Z,76.69
2019-03-28T03:57:19.082Z,76.42
2019-03-28T03:58:19.324Z,76.65
2019-03-28T03:59:19.093Z,76.69
2019-03-28T04:00:19.039Z,76.52
2019-03-28T04:01:19.044Z,76.4
2019-03-28T04:02:19.061Z,75.98
2019-03-28T04:03:19.040Z,76.19
2019-03-28T04:04:19.035Z,76.63
2019-03-28T04:05:19.058Z,76.44
2019-03-28T04:06:19.069Z,76.73
2019-03-28T04:07:19.052Z,76.75
2019-03-28T04:08:19.144Z,76.3
2019-03-28T04:09:19.046Z,76.36
2019-03-28T04:10:19.280Z,76.62
2019-03-28T04:11:19.076Z,76.25
2019-03-28T04:12:19.059Z,76.17
2019-03-28T04:13:19.091Z,76.05
2019-03-28T04:14:19.163Z,76
2019-03-28T04:15:19.073Z,75.96
2019-03-28T04:16:19.049Z,76.1
2019-03-28T04:17:19.061Z,76.04
2019-03-28T04:18:21.983Z,75.78
2019-03-28T04:19:19.111Z,76.26
2019-03-28T04:20:19.011Z,75.85
2019-03-28T04:21:19.041Z,75.57
2019-03-28T04:22:19.016Z,75.02
2019-03-28T04:23:19.037Z,75.21
2019-03-28T04:24:19.049Z,75.45
2019-03-28T04:25:19.020Z,75.57
2019-03-28T04:26:19.053Z,76.31
2019-03-28T04:27:19.118Z,76.74
2019-03-28T04:28:30.644Z,77.14
2019-03-28T04:29:19.059Z,77.48
2019-03-28T04:30:19.034Z,77.59
2019-03-28T04:31:19.214Z,77.44
2019-03-28T04:32:19.218Z,77.96
2019-03-28T04:33:19.075Z,77.37
2019-03-28T04:34:19.029Z,77.5
2019-03-28T04:35:18.992Z,77.47
2019-03-28T04:36:19.023Z,77.42
2019-03-28T04:37:19.069Z,77.1
2019-03-28T04:38:19.012Z,76.7
2019-03-28T04:39:19.018Z,76.75
2019-03-28T04:40:19.037Z,77.08
2019-03-28T04:41:18.989Z,76.99
2019-03-28T04:42:19.050Z,76.82
2019-03-28T04:43:18.993Z,76.18
2019-03-28T04:44:18.978Z,76.53
2019-03-28T04:45:18.996Z,76.92
2019-03-28T04:46:19.010Z,77.07
2019-03-28T04:47:19.007Z,76.51
2019-03-28T04:48:19.019Z,77.05
2019-03-28T04:49:19.113Z,77.09
2019-03-28T04:50:18.969Z,77.43
2019-03-28T04:51:19.046Z,76.6
2019-03-28T04:52:19.406Z,76.75
2019-03-28T04:53:19.177Z,76.84
2019-03-28T04:54:19.011Z,76.34
2019-03-28T04:55:18.974Z,76.62
2019-03-28T04:56:19.000Z,77.04
2019-03-28T04:57:18.979Z,77.07
2019-03-28T04:58:21.553Z,76.9
2019-03-28T04:59:19.022Z,76.61
2019-03-28T05:00:19.088Z,76.84
2019-03-28T05:01:18.960Z,76.69
2019-03-28T05:02:19.022Z,76.81
2019-03-28T05:03:18.993Z,76.92
2019-03-28T05:04:21.023Z,76.75
2019-03-28T05:05:18.960Z,77.63
2019-03-28T05:06:18.963Z,77.08
2019-03-28T05:07:19.008Z,76.73
2019-03-28T05:08:18.965Z,76.79
2019-03-28T05:09:19.033Z,76.35
2019-03-28T05:10:19.079Z,76.13
2019-03-28T05:11:18.978Z,76.74
2019-03-28T05:12:19.017Z,76.01
2019-03-28T05:13:19.089Z,76.76
2019-03-28T05:14:18.981Z,76.78
2019-03-28T05:15:20.454Z,76.6
2019-03-28T05:16:18.961Z,76.97
2019-03-28T05:17:18.947Z,77.45
2019-03-28T05:18:18.961Z,77.33
2019-03-28T05:19:19.003Z,77.76
2019-03-28T05:20:18.939Z,78.09
2019-03-28T05:21:18.972Z,77.84
2019-03-28T05:22:19.936Z,77.36
2019-03-28T05:23:18.953Z,77.84
2019-03-28T05:24:18.961Z,77.53
2019-03-28T05:25:18.919Z,77.42
2019-03-28T05:26:18.927Z,77.15
2019-03-28T05:27:18.947Z,76.71
2019-03-28T05:28:18.925Z,77.18
2019-03-28T05:29:18.979Z,77.38
2019-03-28T05:30:18.907Z,77.28
2019-03-28T05:31:18.907Z,76.83
2019-03-28T05:32:18.910Z,76.5
2019-03-28T05:33:18.922Z,76.9
2019-03-28T05:34:18.912Z,77.23
2019-03-28T05:35:18.996Z,76.94
2019-03-28T05:36:18.998Z,77.38
2019-03-28T05:37:18.948Z,76.92
2019-03-28T05:38:18.944Z,76.49
2019-03-28T05:39:19.546Z,76.34
2019-03-28T05:40:18.899Z,77.07
2019-03-28T05:41:18.886Z,77.35
2019-03-28T05:42:18.934Z,77.47
2019-03-28T05:43:18.895Z,77.17
2019-03-28T05:44:18.905Z,77.08
2019-03-28T05:45:18.926Z,77.16
2019-03-28T05:46:18.896Z,77.3
2019-03-28T05:47:21.793Z,77.03
2019-03-28T05:48:18.946Z,76.85
2019-03-28T05:49:18.892Z,77.45
2019-03-28T05:50:18.876Z,77.51
2019-03-28T05:51:18.881Z,77.31
2019-03-28T05:52:18.876Z,77.62
2019-03-28T05:53:18.888Z,77.55
2019-03-28T05:54:18.889Z,77.46
2019-03-28T05:55:18.910Z,77.51
2019-03-28T05:56:18.869Z,77.49
2019-03-28T05:57:18.941Z,77.67
2019-03-28T05:58:19.092Z,77.99
2019-03-28T05:59:19.519Z,77.86
2019-03-28T06:00:18.937Z,77.79
2019-03-28T06:01:18.889Z,77.44
2019-03-28T06:02:18.888Z,77.46
2019-03-28T06:03:18.890Z,77.75
2019-03-28T06:04:18.856Z,78.92
2019-03-28T06:05:18.914Z,78.93
2019-03-28T06:06:18.865Z,77.81
2019-03-28T06:07:18.848Z,77.55
2019-03-28T06:08:18.868Z,77.61
2019-03-28T06:09:19.338Z,77.56
2019-03-28T06:10:18.883Z,77.62
2019-03-28T06:11:18.848Z,77.51
2019-03-28T06:12:19.323Z,77.77
2019-03-28T06:13:18.855Z,78.02
2019-03-28T06:14:18.888Z,78.33
2019-03-28T06:15:18.837Z,78.17
2019-03-28T06:16:18.848Z,78.34
2019-03-28T06:17:18.830Z,78.36
2019-03-28T06:18:18.838Z,78.03
2019-03-28T06:19:18.850Z,77.28
2019-03-28T06:20:18.863Z,77.12
2019-03-28T06:21:18.886Z,76.91
2019-03-28T06:22:18.847Z,77.82
2019-03-28T06:23:18.905Z,77.77
2019-03-28T06:24:18.878Z,77.52
2019-03-28T06:25:18.828Z,77.06
2019-03-28T06:26:18.896Z,76.94
2019-03-28T06:27:18.863Z,77.61
2019-03-28T06:28:18.880Z,77.56
2019-03-28T06:29:23.923Z,77.78
2019-03-28T06:30:18.876Z,77.75
2019-03-28T06:31:18.823Z,78.23
2019-03-28T06:32:18.873Z,77.78
2019-03-28T06:33:18.850Z,78.08
2019-03-28T06:34:18.946Z,78.4
2019-03-28T06:35:21.788Z,78.77
2019-03-28T06:36:18.849Z,78.4
2019-03-28T06:37:18.824Z,78.48
2019-03-28T06:38:18.820Z,78.51
2019-03-28T06:39:18.903Z,78.51
2019-03-28T06:40:19.134Z,78.55
2019-03-28T06:41:20.180Z,78.94
2019-03-28T06:42:18.827Z,78.91
2019-03-28T06:43:18.820Z,78.74
2019-03-28T06:44:18.813Z,78.77
2019-03-28T06:45:18.872Z,78.62
2019-03-28T06:46:18.866Z,78.18
2019-03-28T06:47:21.030Z,77.87
2019-03-28T06:48:18.797Z,77.31
2019-03-28T06:49:18.809Z,77.94
2019-03-28T06:50:18.805Z,78.24
2019-03-28T06:51:18.860Z,78.42
2019-03-28T06:52:18.920Z,78.37
2019-03-28T06:53:18.834Z,78.56
2019-03-28T06:54:18.803Z,78.22
2019-03-28T06:55:18.809Z,78.74
2019-03-28T06:56:18.791Z,78.55
2019-03-28T06:57:19.052Z,78.17
2019-03-28T06:58:18.917Z,78.39
2019-03-28T06:59:18.810Z,78.07
2019-03-28T07:00:18.842Z,78.08
2019-03-28T07:01:18.812Z,77.91
2019-03-28T07:02:21.743Z,77.8
2019-03-28T07:03:18.846Z,77.44
2019-03-28T07:04:18.820Z,77.67
2019-03-28T07:05:18.773Z,78.26
2019-03-28T07:06:18.782Z,78.01
2019-03-28T07:07:19.030Z,77.8
2019-03-28T07:08:18.787Z,77.65
2019-03-28T07:09:18.794Z,77.97
2019-03-28T07:10:18.776Z,78.35
2019-03-28T07:11:18.783Z,78.47
2019-03-28T07:12:18.830Z,78.64
2019-03-28T07:13:18.780Z,78.49
2019-03-28T07:14:18.750Z,78.74
2019-03-28T07:15:18.750Z,78.66
2019-03-28T07:16:21.082Z,78.33
2019-03-28T07:17:18.853Z,78.41
2019-03-28T07:18:18.820Z,78.96
2019-03-28T07:19:18.784Z,78.71
2019-03-28T07:20:18.811Z,78.79
2019-03-28T07:21:20.223Z,78.43
2019-03-28T07:22:18.784Z,78.37
2019-03-28T07:23:18.909Z,77.97
2019-03-28T07:24:18.796Z,78.5
2019-03-28T07:25:18.758Z,78.76
2019-03-28T07:26:18.762Z,78.46
2019-03-28T07:27:18.739Z,77.83
2019-03-28T07:28:18.730Z,77.9
2019-03-28T07:29:18.730Z,78.25
2019-03-28T07:30:19.392Z,78.06
2019-03-28T07:31:18.741Z,77.47
2019-03-28T07:32:18.798Z,77.9
2019-03-28T07:33:18.756Z,78.08
2019-03-28T07:34:18.738Z,78.12
2019-03-28T07:35:18.775Z,77.78
2019-03-28T07:36:18.743Z,77.75
2019-03-28T07:37:18.781Z,77.69
2019-03-28T07:38:18.757Z,77.42
2019-03-28T07:39:19.206Z,77.35
2019-03-28T07:40:18.756Z,77.42
2019-03-28T07:41:18.843Z,76.92
2019-03-28T07:42:18.733Z,77.09
2019-03-28T07:43:18.768Z,77.17
2019-03-28T07:44:18.733Z,76.77
2019-03-28T07:45:18.811Z,77.05
2019-03-28T07:46:18.793Z,76.53
2019-03-28T07:47:18.749Z,76.83
2019-03-28T07:48:18.770Z,76.63
2019-03-28T07:49:18.752Z,76.23
2019-03-28T07:50:18.694Z,76.2
2019-03-28T07:51:18.705Z,76.08
2019-03-28T07:52:20.153Z,75.94
2019-03-28T07:53:19.890Z,75.95
2019-03-28T07:54:18.741Z,75.83
2019-03-28T07:55:20.073Z,75.64
2019-03-28T07:56:18.709Z,75.7
2019-03-28T07:57:18.716Z,75.6
2019-03-28T07:58:18.707Z,76.51
2019-03-28T07:59:18.742Z,75.38
2019-03-28T08:00:18.781Z,75.59
2019-03-28T08:01:18.725Z,75.36
2019-03-28T08:02:18.724Z,75.15
2019-03-28T08:03:18.688Z,75.42
2019-03-28T08:04:18.703Z,75.25
2019-03-28T08:05:18.707Z,74.95
2019-03-28T08:06:18.683Z,74.69
2019-03-28T08:07:18.727Z,74.31
2019-03-28T08:08:18.700Z,74.83
2019-03-28T08:09:18.697Z,74.92
2019-03-28T08:10:18.697Z,74.84
2019-03-28T08:11:18.787Z,74.87
2019-03-28T08:12:22.736Z,74.77
2019-03-28T08:13:18.734Z,75.05
2019-03-28T08:14:18.673Z,74.66
2019-03-28T08:15:18.685Z,74.87
2019-03-28T08:16:18.663Z,75.07
2019-03-28T08:17:18.710Z,74.94
2019-03-28T08:18:19.466Z,74.64
2019-03-28T08:19:18.729Z,74.62
2019-03-28T08:20:18.712Z,74.83
2019-03-28T08:21:18.712Z,74.72
2019-03-28T08:22:18.681Z,74.65
2019-03-28T08:23:19.551Z,74.33
2019-03-28T08:24:18.746Z,74.31
2019-03-28T08:25:19.766Z,74.69
2019-03-28T08:26:18.668Z,74.72
2019-03-28T08:27:18.648Z,74.75
2019-03-28T08:28:18.725Z,74.7
2019-03-28T08:29:18.830Z,74.62
2019-03-28T08:30:19.515Z,74.25
2019-03-28T08:31:18.672Z,74.09
2019-03-28T08:32:18.645Z,73.76
2019-03-28T08:33:18.644Z,74.18
2019-03-28T08:34:18.909Z,73.96
2019-03-28T08:35:18.638Z,73.71
2019-03-28T08:36:18.656Z,73.46
2019-03-28T08:37:18.763Z,73.2
2019-03-28T08:38:18.649Z,73.23
2019-03-28T08:39:18.648Z,73.11
2019-03-28T08:40:18.626Z,73.18
2019-03-28T08:41:19.623Z,73.3
2019-03-28T08:42:19.545Z,73.02
2019-03-28T08:43:18.635Z,73.29
2019-03-28T08:44:18.633Z,73.13
2019-03-28T08:45:18.645Z,73.02
2019-03-28T08:46:18.676Z,73
2019-03-28T08:47:18.635Z,73.16
2019-03-28T08:48:18.677Z,73
2019-03-28T08:49:18.736Z,72.7
2019-03-28T08:50:18.640Z,72.45
2019-03-28T08:51:18.661Z,72.33
2019-03-28T08:52:18.644Z,72.45
2019-03-28T08:53:18.664Z,72.36
2019-03-28T08:54:18.620Z,72.18
2019-03-28T08:55:18.634Z,71.92
2019-03-28T08:56:18.636Z,72.03
2019-03-28T08:57:18.649Z,71.83
2019-03-28T08:58:18.616Z,71.23
2019-03-28T08:59:19.044Z,71.33
2019-03-28T09:00:31.982Z,71.67
2019-03-28T09:01:19.503Z,71.97
2019-03-28T09:02:18.618Z,71.67
2019-03-28T09:03:18.657Z,71.31
2019-03-28T09:04:18.599Z,71.02
2019-03-28T09:05:18.594Z,69.85
2019-03-28T09:06:18.625Z,70.15
2019-03-28T09:07:18.629Z,70.52
2019-03-28T09:08:18.614Z,70.68
2019-03-28T09:09:21.110Z,70.19
2019-03-28T09:10:18.599Z,70.41
2019-03-28T09:11:21.433Z,69.83
2019-03-28T09:12:18.820Z,69.27
2019-03-28T09:13:19.034Z,69.25
2019-03-28T09:14:18.578Z,69.53
2019-03-28T09:15:18.952Z,70.22
2019-03-28T09:16:18.619Z,70.19
2019-03-28T09:17:18.598Z,69.62
2019-03-28T09:18:18.967Z,69.14
2019-03-28T09:19:18.974Z,69.17
2019-03-28T09:20:18.592Z,68.32
2019-03-28T09:21:18.602Z,69.87
2019-03-28T09:22:18.648Z,69.1
2019-03-28T09:23:18.568Z,68.01
2019-03-28T09:24:18.581Z,67.15
2019-03-28T09:25:18.687Z,66.75
2019-03-28T09:26:18.596Z,66.79
2019-03-28T09:27:18.568Z,67.03
2019-03-28T09:28:18.565Z,66.87
2019-03-28T09:29:18.593Z,66.62
2019-03-28T09:30:18.575Z,66.38
2019-03-28T09:31:20.005Z,67.3
2019-03-28T09:32:18.759Z,67.02
2019-03-28T09:33:18.656Z,66.26
2019-03-28T09:34:18.603Z,65.38
2019-03-28T09:35:18.553Z,64.37
2019-03-28T09:36:18.586Z,64.37
2019-03-28T09:37:18.550Z,64.64
2019-03-28T09:38:18.605Z,65.76
2019-03-28T09:39:19.511Z,65
2019-03-28T09:40:18.573Z,64.7
2019-03-28T09:41:19.558Z,64.61
2019-03-28T09:42:19.573Z,65.22
2019-03-28T09:43:18.598Z,65.02
2019-03-28T09:44:18.576Z,64.63
2019-03-28T09:45:18.541Z,64.29
2019-03-28T09:46:18.548Z,63.87
2019-03-28T09:47:18.537Z,63.64
2019-03-28T09:48:18.574Z,63.16
2019-03-28T09:49:18.519Z,62.9
2019-03-28T09:50:18.546Z,63.21
2019-03-28T09:51:18.549Z,63.51
2019-03-28T09:52:18.530Z,63.22
2019-03-28T09:53:18.520Z,63.99
2019-03-28T09:54:19.662Z,64.41
2019-03-28T09:55:19.083Z,64.15
2019-03-28T09:56:18.573Z,63.85
2019-03-28T09:57:18.620Z,63.74
2019-03-28T09:58:18.544Z,63.18
2019-03-28T09:59:18.564Z,63.84
2019-03-28T10:00:18.524Z,63.95
2019-03-28T10:01:18.612Z,63.49
2019-03-28T10:02:18.507Z,62.96
2019-03-28T10:03:18.531Z,61.82
2019-03-28T10:04:18.518Z,61.41
2019-03-28T10:05:18.501Z,61.79
2019-03-28T10:06:18.516Z,61.24
2019-03-28T10:07:18.583Z,60.52
2019-03-28T10:08:18.488Z,60.86
2019-03-28T10:09:18.503Z,60.41
2019-03-28T10:10:18.557Z,60.99
2019-03-28T10:11:18.519Z,60.42
2019-03-28T10:12:19.615Z,60.19
2019-03-28T10:13:18.498Z,60.89
2019-03-28T10:14:18.500Z,60.11
2019-03-28T10:15:18.517Z,59.84
2019-03-28T10:16:18.647Z,60.26
2019-03-28T10:17:18.533Z,60.15
2019-03-28T10:18:18.488Z,59.77
2019-03-28T10:19:18.507Z,59.4
2019-03-28T10:20:18.517Z,59.32
2019-03-28T10:21:18.495Z,59.59
2019-03-28T10:22:18.508Z,59.29
2019-03-28T10:23:18.496Z,58.31
2019-03-28T10:24:18.510Z,58.54
2019-03-28T10:25:18.486Z,57.89
2019-03-28T10:26:18.518Z,58.57
2019-03-28T10:27:19.262Z,58.51
2019-03-28T10:28:18.501Z,58.07
2019-03-28T10:29:18.465Z,57.9
2019-03-28T10:30:18.466Z,58.06
2019-03-28T10:31:18.505Z,58.78
2019-03-28T10:32:18.512Z,59.23
2019-03-28T10:33:18.501Z,59.29
2019-03-28T10:34:19.372Z,59.17
2019-03-28T10:35:18.482Z,57.96
2019-03-28T10:36:18.455Z,58.25
2019-03-28T10:37:18.708Z,57.88
2019-03-28T10:38:18.462Z,57.82
2019-03-28T10:39:18.501Z,57.05
2019-03-28T10:40:18.463Z,56.36
2019-03-28T10:41:18.488Z,56.13
2019-03-28T10:42:19.346Z,56.12
2019-03-28T10:43:18.446Z,56.45
2019-03-28T10:44:18.482Z,56.48
2019-03-28T10:45:18.465Z,56.04
2019-03-28T10:46:18.484Z,56.42
2019-03-28T10:47:18.473Z,56.27
2019-03-28T10:48:19.456Z,56.13
2019-03-28T10:49:18.455Z,55.75
2019-03-28T10:50:18.454Z,56.47
2019-03-28T10:51:18.467Z,56.16
2019-03-28T10:52:18.453Z,56.63
2019-03-28T10:53:18.440Z,55.73
2019-03-28T10:54:20.267Z,55.13
2019-03-28T10:55:18.452Z,55.34
2019-03-28T10:56:21.720Z,55.84
2019-03-28T10:57:29.205Z,56
2019-03-28T10:58:19.438Z,56.01
2019-03-28T10:59:23.409Z,54.91
2019-03-28T11:00:23.713Z,55.6
2019-03-28T11:01:32.672Z,55.43
2019-03-28T11:02:18.434Z,55.17
2019-03-28T11:03:18.433Z,54.83
2019-03-28T11:04:18.490Z,55.02
2019-03-28T11:05:18.483Z,54.98
2019-03-28T11:06:18.422Z,54.12
2019-03-28T11:07:18.459Z,54.53
2019-03-28T11:08:18.469Z,54.33
2019-03-28T11:09:18.510Z,54
2019-03-28T11:10:18.449Z,54.54
2019-03-28T11:11:18.457Z,54.17
2019-03-28T11:12:18.416Z,54.09
2019-03-28T11:13:18.448Z,54.22
2019-03-28T11:14:18.425Z,54.72
2019-03-28T11:15:18.437Z,55.46
2019-03-28T11:16:18.417Z,54.98
2019-03-28T11:17:18.435Z,54.18
2019-03-28T11:18:18.442Z,53.63
2019-03-28T11:19:18.418Z,53.8
2019-03-28T11:20:18.706Z,54.05
2019-03-28T11:21:18.421Z,53.52
2019-03-28T11:22:18.404Z,52.27
2019-03-28T11:23:18.406Z,52.44
2019-03-28T11:24:18.424Z,53.67
2019-03-28T11:25:18.401Z,54.17
2019-03-28T11:26:18.523Z,54.03
2019-03-28T11:27:18.422Z,52.48
2019-03-28T11:28:18.396Z,52.94
2019-03-28T11:29:18.408Z,53.42
2019-03-28T11:30:18.677Z,54.17
2019-03-28T11:31:18.393Z,54.58
2019-03-28T11:32:18.742Z,53.49
2019-03-28T11:33:18.395Z,52.47
2019-03-28T11:34:18.409Z,52.55
2019-03-28T11:35:18.389Z,52.48
2019-03-28T11:36:18.380Z,52.14
2019-03-28T11:37:25.693Z,52.61
2019-03-28T11:38:18.399Z,51.93
2019-03-28T11:39:18.390Z,51.07
2019-03-28T11:40:19.328Z,50.94
2019-03-28T11:41:18.695Z,51.47
2019-03-28T11:42:19.488Z,51.56
2019-03-28T11:43:18.402Z,52.41
2019-03-28T11:44:18.448Z,52.15
2019-03-28T11:45:18.428Z,50.95
2019-03-28T11:46:18.424Z,51.31
2019-03-28T11:47:20.601Z,51.04
2019-03-28T11:48:18.410Z,51.13
2019-03-28T11:49:18.384Z,50.78
2019-03-28T11:50:18.371Z,50.73
2019-03-28T11:51:18.391Z,50.83
2019-03-28T11:52:18.369Z,50.59
2019-03-28T11:53:18.400Z,50.34
2019-03-28T11:54:18.375Z,50.46
2019-03-28T11:55:18.378Z,50.77
2019-03-28T11:56:18.400Z,50.3
2019-03-28T11:57:18.385Z,50.42
2019-03-28T11:58:18.450Z,50.58
2019-03-28T11:59:18.415Z,49.95
2019-03-28T12:00:18.401Z,50.19
2019-03-28T12:01:18.418Z,50.76
2019-03-28T12:02:19.932Z,50.27
2019-03-28T12:03:18.394Z,51.02
2019-03-28T12:04:18.337Z,50.3
2019-03-28T12:05:18.363Z,51.13
2019-03-28T12:06:18.388Z,50.5
2019-03-28T12:07:18.440Z,49.88
2019-03-28T12:08:19.600Z,48.81
2019-03-28T12:09:18.401Z,48.66
2019-03-28T12:10:18.389Z,50.08
2019-03-28T12:11:18.383Z,49.31
2019-03-28T12:12:18.351Z,48.46
2019-03-28T12:13:18.407Z,48.43
2019-03-28T12:14:18.367Z,48.41
2019-03-28T12:15:18.344Z,48.92
2019-03-28T12:16:18.416Z,48.47
2019-03-28T12:17:18.372Z,48.28
2019-03-28T12:18:18.374Z,48.37
2019-03-28T12:19:18.366Z,48.72
2019-03-28T12:20:18.413Z,48.56
2019-03-28T12:21:19.200Z,48.8
2019-03-28T12:22:18.400Z,48.43
2019-03-28T12:23:18.322Z,47.98
2019-03-28T12:24:18.342Z,47.98
2019-03-28T12:25:18.379Z,48.03
2019-03-28T12:26:18.348Z,47.93
2019-03-28T12:27:18.357Z,48.47
2019-03-28T12:28:18.325Z,47.74
2019-03-28T12:29:18.336Z,48.14
2019-03-28T12:30:18.350Z,47.66
2019-03-28T12:31:18.322Z,47.89
2019-03-28T12:32:18.316Z,48
2019-03-28T12:33:18.303Z,47.21
2019-03-28T12:34:18.317Z,47.55
2019-03-28T12:35:18.341Z,47.41
2019-03-28T12:36:18.809Z,47.44
2019-03-28T12:37:18.317Z,47.46
2019-03-28T12:38:18.344Z,47.68
2019-03-28T12:39:18.310Z,48.4
2019-03-28T12:40:18.303Z,49.14
2019-03-28T12:41:18.443Z,48.64
2019-03-28T12:42:18.419Z,47.91
2019-03-28T12:43:18.314Z,47.75
2019-03-28T12:44:18.295Z,47.49
2019-03-28T12:45:18.366Z,47.7
2019-03-28T12:46:18.292Z,47.4
2019-03-28T12:47:18.305Z,47.57
2019-03-28T12:48:18.295Z,47.47
2019-03-28T12:49:18.288Z,47.19
2019-03-28T12:50:18.279Z,47.09
2019-03-28T12:51:18.300Z,47.25
2019-03-28T12:52:18.568Z,47.39
2019-03-28T12:53:18.301Z,47.5
2019-03-28T12:54:18.285Z,47.84
2019-03-28T12:55:18.326Z,48.03